This is the latest recevied weather packets stored in our database for station/object KB3FKJ. If no packets are shown the sender has not sent any weather packets the latest 10 day(s).
| Time | Temp. | Humidity | Pressure | Rain* | Wind** | Luminosity | Snow |
|---|---|---|---|---|---|---|---|
| 1777578148 | 9.44° C | 84% | 1009.9 hPa | 0 mm | - | 146 W/m² | - |
| 1777577844 | 8.89° C | 85% | 1009.9 hPa | 0 mm | - | 71 W/m² | - |
| 1777577540 | 8.89° C | 86% | 1009.6 hPa | 0 mm | - | 51 W/m² | - |
| 1777577237 | 8.89° C | 86% | 1009.7 hPa | 0 mm | - | 32 W/m² | - |
| 1777576933 | 8.89° C | 88% | 1009.8 hPa | 0 mm | - | 59 W/m² | - |
| 1777576629 | 8.89° C | 87% | 1009.7 hPa | 0 mm | - | 107 W/m² | - |
| 1777576323 | 9.44° C | 86% | 1009.4 hPa | 0 mm | - | 90 W/m² | - |
| 1777576020 | 10.56° C | 85% | 1009.7 hPa | 0 mm | - | 146 W/m² | - |
| 1777575717 | 9.44° C | 87% | 1009.2 hPa | 0 mm | - | 207 W/m² | - |
| 1777575413 | 9.44° C | 89% | 1009.1 hPa | 0 mm | - | 164 W/m² | - |
| 1777575108 | 8.89° C | 90% | 1009.3 hPa | 0 mm | - | 195 W/m² | - |
| 1777574804 | 8.89° C | 90% | 1009.3 hPa | 1.27 mm | - | 173 W/m² | - |
| 1777574502 | 8.33° C | 90% | 1009.3 hPa | 1.27 mm | - | 110 W/m² | - |
| 1777574198 | 8.89° C | 87% | 1009.1 hPa | 0 mm | - | 87 W/m² | - |
| 1777573894 | 8.33° C | 86% | 1009.1 hPa | 0 mm | - | 100 W/m² | - |
| 1777573588 | 8.89° C | 84% | 1009 hPa | 0 mm | - | 73 W/m² | - |
| 1777573285 | 11.11° C | 78% | 1008.8 hPa | 0 mm | - | 49 W/m² | - |
| 1777572981 | 12.22° C | 69% | 1008.8 hPa | 0 mm | - | 31 W/m² | - |
| 1777572677 | 12.78° C | 68% | 1008.3 hPa | 0 mm | - | 94 W/m² | - |
| 1777572376 | 12.78° C | 67% | 1008.2 hPa | 0 mm | - | 195 W/m² | - |
| 1777572074 | 12.22° C | 69% | 1008.3 hPa | 0 mm | - | 255 W/m² | - |
| 1777571774 | 12.22° C | 68% | 1008.3 hPa | 0 mm | - | 187 W/m² | - |
| 1777571471 | 12.22° C | 71% | 1008.4 hPa | 0 mm | - | 148 W/m² | - |
| 1777571167 | 12.22° C | 73% | 1008.6 hPa | 0 mm | - | 180 W/m² | - |
| 1777570863 | 11.67° C | 71% | 1008.6 hPa | 0 mm | - | 240 W/m² | - |
* Rain latest hour (hover to see other rain measurements)
** Current wind speed in m/s (hover to see current wind gust speed)